sensor_id;sensor_type;location;lat;lon;timestamp;temperature;humidity
26954;DHT22;14508;50.924;11.600;2023-02-26T00:01:39;1.70;99.90
26954;DHT22;14508;50.924;11.600;2023-02-26T00:04:09;1.70;99.90
26954;DHT22;14508;50.924;11.600;2023-02-26T00:06:38;1.60;99.90
26954;DHT22;14508;50.924;11.600;2023-02-26T00:09:18;1.60;99.90
26954;DHT22;14508;50.924;11.600;2023-02-26T00:11:48;1.60;99.90
26954;DHT22;14508;50.924;11.600;2023-02-26T00:14:17;1.60;99.90
26954;DHT22;14508;50.924;11.600;2023-02-26T00:16:47;1.60;99.90
26954;DHT22;14508;50.924;11.600;2023-02-26T00:19:17;1.50;99.90
26954;DHT22;14508;50.924;11.600;2023-02-26T00:21:46;1.50;99.90
26954;DHT22;14508;50.924;11.600;2023-02-26T00:24:13;1.50;99.90
26954;DHT22;14508;50.924;11.600;2023-02-26T00:26:41;1.40;99.90
26954;DHT22;14508;50.924;11.600;2023-02-26T00:29:11;1.40;99.90
26954;DHT22;14508;50.924;11.600;2023-02-26T00:31:39;1.40;99.90
26954;DHT22;14508;50.924;11.600;2023-02-26T00:34:11;1.40;99.90
26954;DHT22;14508;50.924;11.600;2023-02-26T00:36:43;1.40;99.90
26954;DHT22;14508;50.924;11.600;2023-02-26T00:39:34;1.40;99.90
26954;DHT22;14508;50.924;11.600;2023-02-26T00:42:02;1.40;99.90
26954;DHT22;14508;50.924;11.600;2023-02-26T00:44:32;1.40;99.90
26954;DHT22;14508;50.924;11.600;2023-02-26T00:47:06;1.40;99.90
26954;DHT22;14508;50.924;11.600;2023-02-26T00:49:47;1.40;99.90
26954;DHT22;14508;50.924;11.600;2023-02-26T00:52:22;1.40;99.90
26954;DHT22;14508;50.924;11.600;2023-02-26T00:54:52;1.40;99.90
26954;DHT22;14508;50.924;11.600;2023-02-26T00:57:20;1.30;99.90
26954;DHT22;14508;50.924;11.600;2023-02-26T00:59:50;1.40;99.90
26954;DHT22;14508;50.924;11.600;2023-02-26T01:02:19;1.30;99.90
26954;DHT22;14508;50.924;11.600;2023-02-26T01:04:47;1.30;99.90
26954;DHT22;14508;50.924;11.600;2023-02-26T01:07:18;1.30;99.90
26954;DHT22;14508;50.924;11.600;2023-02-26T01:09:49;1.30;99.90
26954;DHT22;14508;50.924;11.600;2023-02-26T01:12:17;1.30;99.90
26954;DHT22;14508;50.924;11.600;2023-02-26T01:14:46;1.30;99.90
26954;DHT22;14508;50.924;11.600;2023-02-26T01:17:20;1.30;99.90
26954;DHT22;14508;50.924;11.600;2023-02-26T01:19:53;1.20;99.90
26954;DHT22;14508;50.924;11.600;2023-02-26T01:22:26;1.20;99.90
26954;DHT22;14508;50.924;11.600;2023-02-26T01:25:01;1.30;99.90
26954;DHT22;14508;50.924;11.600;2023-02-26T01:27:29;1.30;99.90
26954;DHT22;14508;50.924;11.600;2023-02-26T01:29:57;1.20;99.90
26954;DHT22;14508;50.924;11.600;2023-02-26T01:32:42;1.20;99.90
26954;DHT22;14508;50.924;11.600;2023-02-26T01:35:20;1.20;99.90
26954;DHT22;14508;50.924;11.600;2023-02-26T01:37:52;1.20;99.90
26954;DHT22;14508;50.924;11.600;2023-02-26T01:43:41;1.10;99.90
26954;DHT22;14508;50.924;11.600;2023-02-26T01:46:15;1.00;99.90
26954;DHT22;14508;50.924;11.600;2023-02-26T01:48:50;1.00;99.90
26954;DHT22;14508;50.924;11.600;2023-02-26T01:54:02;1.00;99.90
26954;DHT22;14508;50.924;11.600;2023-02-26T01:56:29;1.00;99.90
26954;DHT22;14508;50.924;11.600;2023-02-26T01:58:57;1.00;99.90
26954;DHT22;14508;50.924;11.600;2023-02-26T02:01:26;0.90;99.90
26954;DHT22;14508;50.924;11.600;2023-02-26T02:03:55;0.80;99.90
26954;DHT22;14508;50.924;11.600;2023-02-26T02:06:24;0.80;99.90
26954;DHT22;14508;50.924;11.600;2023-02-26T02:08:53;0.90;99.90
26954;DHT22;14508;50.924;11.600;2023-02-26T02:11:22;0.90;99.90
26954;DHT22;14508;50.924;11.600;2023-02-26T02:14:04;0.90;99.90
26954;DHT22;14508;50.924;11.600;2023-02-26T02:16:41;0.90;99.90
26954;DHT22;14508;50.924;11.600;2023-02-26T02:19:29;0.90;99.90
26954;DHT22;14508;50.924;11.600;2023-02-26T02:22:15;0.90;99.90
26954;DHT22;14508;50.924;11.600;2023-02-26T02:24:55;0.90;99.90
26954;DHT22;14508;50.924;11.600;2023-02-26T02:27:31;0.90;99.90
26954;DHT22;14508;50.924;11.600;2023-02-26T02:30:21;0.90;99.90
26954;DHT22;14508;50.924;11.600;2023-02-26T02:32:57;0.90;99.90
26954;DHT22;14508;50.924;11.600;2023-02-26T02:35:31;0.90;99.90
26954;DHT22;14508;50.924;11.600;2023-02-26T02:38:04;0.90;99.90
26954;DHT22;14508;50.924;11.600;2023-02-26T02:40:38;0.90;99.90
26954;DHT22;14508;50.924;11.600;2023-02-26T02:43:09;0.90;99.90
26954;DHT22;14508;50.924;11.600;2023-02-26T02:45:41;0.90;99.90
26954;DHT22;14508;50.924;11.600;2023-02-26T02:48:15;0.90;99.90
26954;DHT22;14508;50.924;11.600;2023-02-26T02:50:47;0.80;99.90
26954;DHT22;14508;50.924;11.600;2023-02-26T02:53:19;0.80;99.90
26954;DHT22;14508;50.924;11.600;2023-02-26T02:55:52;0.70;99.90
26954;DHT22;14508;50.924;11.600;2023-02-26T02:58:23;0.70;99.90
26954;DHT22;14508;50.924;11.600;2023-02-26T03:00:54;0.70;99.90
26954;DHT22;14508;50.924;11.600;2023-02-26T03:03:28;0.70;99.90
26954;DHT22;14508;50.924;11.600;2023-02-26T03:05:58;0.60;99.90
26954;DHT22;14508;50.924;11.600;2023-02-26T03:08:29;0.60;99.90
26954;DHT22;14508;50.924;11.600;2023-02-26T03:10:58;0.60;99.90
26954;DHT22;14508;50.924;11.600;2023-02-26T03:13:26;0.70;99.90
26954;DHT22;14508;50.924;11.600;2023-02-26T03:16:17;0.70;99.90
26954;DHT22;14508;50.924;11.600;2023-02-26T03:18:55;0.70;99.90
26954;DHT22;14508;50.924;11.600;2023-02-26T03:21:29;0.70;99.90
26954;DHT22;14508;50.924;11.600;2023-02-26T03:24:01;0.70;99.90
26954;DHT22;14508;50.924;11.600;2023-02-26T03:26:39;0.70;99.90
26954;DHT22;14508;50.924;11.600;2023-02-26T03:29:15;0.70;99.90
26954;DHT22;14508;50.924;11.600;2023-02-26T03:31:49;0.70;99.90
26954;DHT22;14508;50.924;11.600;2023-02-26T03:34:25;0.70;99.90
26954;DHT22;14508;50.924;11.600;2023-02-26T03:36:56;0.70;99.90
26954;DHT22;14508;50.924;11.600;2023-02-26T03:39:30;0.60;99.90
26954;DHT22;14508;50.924;11.600;2023-02-26T03:42:03;0.60;99.90
26954;DHT22;14508;50.924;11.600;2023-02-26T03:44:44;0.70;99.90
26954;DHT22;14508;50.924;11.600;2023-02-26T03:47:15;0.70;99.90
26954;DHT22;14508;50.924;11.600;2023-02-26T03:49:48;0.80;99.90
26954;DHT22;14508;50.924;11.600;2023-02-26T03:52:17;0.80;99.90
26954;DHT22;14508;50.924;11.600;2023-02-26T03:55:01;0.80;99.90
26954;DHT22;14508;50.924;11.600;2023-02-26T03:57:50;0.80;99.90
26954;DHT22;14508;50.924;11.600;2023-02-26T04:00:41;0.80;99.90
26954;DHT22;14508;50.924;11.600;2023-02-26T04:03:14;0.80;99.90
26954;DHT22;14508;50.924;11.600;2023-02-26T04:05:48;0.90;99.90
26954;DHT22;14508;50.924;11.600;2023-02-26T04:08:17;0.90;99.90
26954;DHT22;14508;50.924;11.600;2023-02-26T04:10:52;0.90;99.90
26954;DHT22;14508;50.924;11.600;2023-02-26T04:13:21;0.90;99.90
26954;DHT22;14508;50.924;11.600;2023-02-26T04:15:51;0.80;99.90
26954;DHT22;14508;50.924;11.600;2023-02-26T04:18:19;0.80;99.90
26954;DHT22;14508;50.924;11.600;2023-02-26T04:20:49;0.70;99.90
26954;DHT22;14508;50.924;11.600;2023-02-26T04:23:16;0.70;99.90
26954;DHT22;14508;50.924;11.600;2023-02-26T04:25:47;0.70;99.90
26954;DHT22;14508;50.924;11.600;2023-02-26T04:28:15;0.70;99.90
26954;DHT22;14508;50.924;11.600;2023-02-26T04:30:43;0.70;99.90
26954;DHT22;14508;50.924;11.600;2023-02-26T04:33:13;0.70;99.90
26954;DHT22;14508;50.924;11.600;2023-02-26T04:35:41;0.70;99.90
26954;DHT22;14508;50.924;11.600;2023-02-26T04:38:11;0.70;99.90
26954;DHT22;14508;50.924;11.600;2023-02-26T04:40:39;0.60;99.90
26954;DHT22;14508;50.924;11.600;2023-02-26T04:43:10;0.50;99.90
26954;DHT22;14508;50.924;11.600;2023-02-26T04:45:47;0.50;99.90
26954;DHT22;14508;50.924;11.600;2023-02-26T04:48:16;0.40;99.90
26954;DHT22;14508;50.924;11.600;2023-02-26T04:50:44;0.50;99.90
26954;DHT22;14508;50.924;11.600;2023-02-26T04:53:14;0.40;99.90
26954;DHT22;14508;50.924;11.600;2023-02-26T04:55:42;0.40;99.90
26954;DHT22;14508;50.924;11.600;2023-02-26T04:58:09;0.40;99.90
26954;DHT22;14508;50.924;11.600;2023-02-26T05:00:38;0.40;99.90
26954;DHT22;14508;50.924;11.600;2023-02-26T05:03:06;0.40;99.90
26954;DHT22;14508;50.924;11.600;2023-02-26T05:05:35;0.40;99.90
26954;DHT22;14508;50.924;11.600;2023-02-26T05:08:03;0.40;99.90
26954;DHT22;14508;50.924;11.600;2023-02-26T05:10:33;0.40;99.90
26954;DHT22;14508;50.924;11.600;2023-02-26T05:13:03;0.50;99.90
26954;DHT22;14508;50.924;11.600;2023-02-26T05:15:31;0.40;99.90
26954;DHT22;14508;50.924;11.600;2023-02-26T05:17:59;0.50;99.90
26954;DHT22;14508;50.924;11.600;2023-02-26T05:20:28;0.50;99.90
26954;DHT22;14508;50.924;11.600;2023-02-26T05:22:56;0.50;99.90
26954;DHT22;14508;50.924;11.600;2023-02-26T05:25:23;0.50;99.90
26954;DHT22;14508;50.924;11.600;2023-02-26T05:27:53;0.40;99.90
26954;DHT22;14508;50.924;11.600;2023-02-26T05:30:22;0.40;99.90
26954;DHT22;14508;50.924;11.600;2023-02-26T05:32:50;0.40;99.90
26954;DHT22;14508;50.924;11.600;2023-02-26T05:35:18;0.40;99.90
26954;DHT22;14508;50.924;11.600;2023-02-26T05:37:45;0.40;99.90
26954;DHT22;14508;50.924;11.600;2023-02-26T05:40:14;0.40;99.90
26954;DHT22;14508;50.924;11.600;2023-02-26T05:42:42;0.40;99.90
26954;DHT22;14508;50.924;11.600;2023-02-26T05:45:11;0.40;99.90
26954;DHT22;14508;50.924;11.600;2023-02-26T05:47:39;0.40;99.90
26954;DHT22;14508;50.924;11.600;2023-02-26T05:50:09;0.40;99.90
26954;DHT22;14508;50.924;11.600;2023-02-26T05:52:37;0.40;99.90
26954;DHT22;14508;50.924;11.600;2023-02-26T05:55:06;0.40;99.90
26954;DHT22;14508;50.924;11.600;2023-02-26T05:57:34;0.40;99.90
26954;DHT22;14508;50.924;11.600;2023-02-26T06:00:04;0.40;99.90
26954;DHT22;14508;50.924;11.600;2023-02-26T06:02:39;0.40;99.90
26954;DHT22;14508;50.924;11.600;2023-02-26T06:05:08;0.50;99.90
26954;DHT22;14508;50.924;11.600;2023-02-26T06:07:36;0.50;99.90
26954;DHT22;14508;50.924;11.600;2023-02-26T06:10:05;0.60;99.90
26954;DHT22;14508;50.924;11.600;2023-02-26T06:12:34;0.60;99.90
26954;DHT22;14508;50.924;11.600;2023-02-26T06:15:02;0.60;99.90
26954;DHT22;14508;50.924;11.600;2023-02-26T06:17:30;0.60;99.90
26954;DHT22;14508;50.924;11.600;2023-02-26T06:20:00;0.60;99.90
26954;DHT22;14508;50.924;11.600;2023-02-26T06:22:28;0.60;99.90
26954;DHT22;14508;50.924;11.600;2023-02-26T06:24:56;0.60;99.90
26954;DHT22;14508;50.924;11.600;2023-02-26T06:27:24;0.50;99.90
26954;DHT22;14508;50.924;11.600;2023-02-26T06:29:52;0.50;99.90
26954;DHT22;14508;50.924;11.600;2023-02-26T06:32:19;0.50;99.90
26954;DHT22;14508;50.924;11.600;2023-02-26T06:34:47;0.50;99.90
26954;DHT22;14508;50.924;11.600;2023-02-26T06:37:16;0.50;99.90
26954;DHT22;14508;50.924;11.600;2023-02-26T06:39:44;0.50;99.90
26954;DHT22;14508;50.924;11.600;2023-02-26T06:42:12;0.50;99.90
26954;DHT22;14508;50.924;11.600;2023-02-26T06:44:40;0.50;99.90
26954;DHT22;14508;50.924;11.600;2023-02-26T06:47:08;0.50;99.90
26954;DHT22;14508;50.924;11.600;2023-02-26T06:49:36;0.50;99.90
26954;DHT22;14508;50.924;11.600;2023-02-26T06:52:03;0.50;99.90
26954;DHT22;14508;50.924;11.600;2023-02-26T06:54:33;0.50;99.90
26954;DHT22;14508;50.924;11.600;2023-02-26T06:57:01;0.60;99.90
26954;DHT22;14508;50.924;11.600;2023-02-26T06:59:29;0.60;99.90
26954;DHT22;14508;50.924;11.600;2023-02-26T07:01:57;0.60;99.90
26954;DHT22;14508;50.924;11.600;2023-02-26T07:04:25;0.70;99.90
26954;DHT22;14508;50.924;11.600;2023-02-26T07:06:52;0.60;99.90
26954;DHT22;14508;50.924;11.600;2023-02-26T07:09:20;0.60;99.90
26954;DHT22;14508;50.924;11.600;2023-02-26T07:11:50;0.60;99.90
26954;DHT22;14508;50.924;11.600;2023-02-26T07:14:17;0.60;99.90
26954;DHT22;14508;50.924;11.600;2023-02-26T07:16:45;0.60;99.90
26954;DHT22;14508;50.924;11.600;2023-02-26T07:19:13;0.60;99.90
26954;DHT22;14508;50.924;11.600;2023-02-26T07:21:41;0.60;99.90
26954;DHT22;14508;50.924;11.600;2023-02-26T07:24:09;0.60;99.90
26954;DHT22;14508;50.924;11.600;2023-02-26T07:26:36;0.60;99.90
26954;DHT22;14508;50.924;11.600;2023-02-26T07:29:06;0.60;99.90
26954;DHT22;14508;50.924;11.600;2023-02-26T07:31:34;0.70;99.90
26954;DHT22;14508;50.924;11.600;2023-02-26T07:34:02;0.70;99.90
26954;DHT22;14508;50.924;11.600;2023-02-26T07:36:30;0.70;99.90
26954;DHT22;14508;50.924;11.600;2023-02-26T07:38:58;0.70;99.90
26954;DHT22;14508;50.924;11.600;2023-02-26T07:41:26;0.90;99.90
26954;DHT22;14508;50.924;11.600;2023-02-26T07:43:54;0.90;99.90
26954;DHT22;14508;50.924;11.600;2023-02-26T07:46:23;1.00;99.90
26954;DHT22;14508;50.924;11.600;2023-02-26T07:48:51;1.10;99.90
26954;DHT22;14508;50.924;11.600;2023-02-26T07:51:19;1.10;99.90
26954;DHT22;14508;50.924;11.600;2023-02-26T07:53:47;1.20;99.90
26954;DHT22;14508;50.924;11.600;2023-02-26T07:56:15;1.30;99.90
26954;DHT22;14508;50.924;11.600;2023-02-26T07:58:43;1.40;99.90
26954;DHT22;14508;50.924;11.600;2023-02-26T08:01:10;1.50;99.90
26954;DHT22;14508;50.924;11.600;2023-02-26T08:03:40;1.70;99.90
26954;DHT22;14508;50.924;11.600;2023-02-26T08:06:07;1.70;99.90
26954;DHT22;14508;50.924;11.600;2023-02-26T08:08:35;1.80;99.90
26954;DHT22;14508;50.924;11.600;2023-02-26T08:11:03;1.90;99.90
26954;DHT22;14508;50.924;11.600;2023-02-26T08:13:31;2.00;99.90
26954;DHT22;14508;50.924;11.600;2023-02-26T08:15:59;2.10;99.90
26954;DHT22;14508;50.924;11.600;2023-02-26T08:18:27;2.20;99.90
26954;DHT22;14508;50.924;11.600;2023-02-26T08:20:56;2.30;99.90
26954;DHT22;14508;50.924;11.600;2023-02-26T08:23:24;2.30;99.90
26954;DHT22;14508;50.924;11.600;2023-02-26T08:25:59;2.40;99.90
26954;DHT22;14508;50.924;11.600;2023-02-26T08:28:27;2.60;99.90
26954;DHT22;14508;50.924;11.600;2023-02-26T08:30:56;2.80;99.90
26954;DHT22;14508;50.924;11.600;2023-02-26T08:33:24;2.80;99.90
26954;DHT22;14508;50.924;11.600;2023-02-26T08:35:52;2.70;99.90
26954;DHT22;14508;50.924;11.600;2023-02-26T08:38:23;2.60;99.90
26954;DHT22;14508;50.924;11.600;2023-02-26T08:40:51;2.50;99.90
26954;DHT22;14508;50.924;11.600;2023-02-26T08:43:19;2.50;99.90
26954;DHT22;14508;50.924;11.600;2023-02-26T08:45:47;2.60;99.90
26954;DHT22;14508;50.924;11.600;2023-02-26T08:48:18;2.60;99.90
26954;DHT22;14508;50.924;11.600;2023-02-26T08:50:45;2.70;99.90
26954;DHT22;14508;50.924;11.600;2023-02-26T08:53:14;2.80;99.90
26954;DHT22;14508;50.924;11.600;2023-02-26T08:55:46;2.90;99.90
26954;DHT22;14508;50.924;11.600;2023-02-26T08:58:14;3.00;99.90
26954;DHT22;14508;50.924;11.600;2023-02-26T09:00:42;3.00;99.90
26954;DHT22;14508;50.924;11.600;2023-02-26T09:03:10;3.00;99.90
26954;DHT22;14508;50.924;11.600;2023-02-26T09:05:38;3.00;99.90
26954;DHT22;14508;50.924;11.600;2023-02-26T09:08:07;3.00;99.90
26954;DHT22;14508;50.924;11.600;2023-02-26T09:10:35;3.10;99.90
26954;DHT22;14508;50.924;11.600;2023-02-26T09:13:07;3.30;99.90
26954;DHT22;14508;50.924;11.600;2023-02-26T09:15:35;3.40;99.90
26954;DHT22;14508;50.924;11.600;2023-02-26T09:18:04;3.50;99.90
26954;DHT22;14508;50.924;11.600;2023-02-26T09:20:32;3.60;99.90
26954;DHT22;14508;50.924;11.600;2023-02-26T09:22:59;3.60;99.20
26954;DHT22;14508;50.924;11.600;2023-02-26T09:25:27;3.60;99.90
26954;DHT22;14508;50.924;11.600;2023-02-26T09:27:55;3.60;99.50
26954;DHT22;14508;50.924;11.600;2023-02-26T09:30:25;3.50;99.00
26954;DHT22;14508;50.924;11.600;2023-02-26T09:32:54;3.50;98.90
26954;DHT22;14508;50.924;11.600;2023-02-26T09:35:21;3.60;98.60
26954;DHT22;14508;50.924;11.600;2023-02-26T09:37:49;3.70;99.20
26954;DHT22;14508;50.924;11.600;2023-02-26T09:40:24;3.80;96.50
26954;DHT22;14508;50.924;11.600;2023-02-26T09:43:05;3.80;97.10
26954;DHT22;14508;50.924;11.600;2023-02-26T09:45:41;3.80;95.60
26954;DHT22;14508;50.924;11.600;2023-02-26T09:48:13;3.80;96.40
26954;DHT22;14508;50.924;11.600;2023-02-26T09:50:45;3.90;97.30
26954;DHT22;14508;50.924;11.600;2023-02-26T09:53:16;4.00;97.30
26954;DHT22;14508;50.924;11.600;2023-02-26T09:55:46;4.10;97.40
26954;DHT22;14508;50.924;11.600;2023-02-26T09:58:19;4.30;97.20
26954;DHT22;14508;50.924;11.600;2023-02-26T10:00:53;4.40;95.80
26954;DHT22;14508;50.924;11.600;2023-02-26T10:03:27;4.40;93.10
26954;DHT22;14508;50.924;11.600;2023-02-26T10:06:14;4.30;93.00
26954;DHT22;14508;50.924;11.600;2023-02-26T10:08:54;4.20;93.80
26954;DHT22;14508;50.924;11.600;2023-02-26T10:11:29;4.10;93.90
26954;DHT22;14508;50.924;11.600;2023-02-26T10:14:02;3.90;92.70
26954;DHT22;14508;50.924;11.600;2023-02-26T10:16:38;3.90;93.20
26954;DHT22;14508;50.924;11.600;2023-02-26T10:19:13;3.80;94.30
26954;DHT22;14508;50.924;11.600;2023-02-26T10:21:45;3.80;95.00
26954;DHT22;14508;50.924;11.600;2023-02-26T10:24:19;3.90;94.70
26954;DHT22;14508;50.924;11.600;2023-02-26T10:26:54;3.90;93.90
26954;DHT22;14508;50.924;11.600;2023-02-26T10:29:25;4.00;93.90
26954;DHT22;14508;50.924;11.600;2023-02-26T10:32:06;4.10;93.60
26954;DHT22;14508;50.924;11.600;2023-02-26T10:34:44;4.30;93.30
26954;DHT22;14508;50.924;11.600;2023-02-26T10:37:17;4.40;92.10
26954;DHT22;14508;50.924;11.600;2023-02-26T10:39:49;4.40;85.20
26954;DHT22;14508;50.924;11.600;2023-02-26T10:42:21;4.40;86.00
26954;DHT22;14508;50.924;11.600;2023-02-26T10:45:04;4.50;88.10
26954;DHT22;14508;50.924;11.600;2023-02-26T10:47:42;4.70;86.90
26954;DHT22;14508;50.924;11.600;2023-02-26T10:50:14;4.80;83.80
26954;DHT22;14508;50.924;11.600;2023-02-26T10:52:45;4.90;80.20
26954;DHT22;14508;50.924;11.600;2023-02-26T10:55:30;5.10;82.00
26954;DHT22;14508;50.924;11.600;2023-02-26T10:58:03;5.30;78.90
26954;DHT22;14508;50.924;11.600;2023-02-26T11:00:32;5.40;77.40
26954;DHT22;14508;50.924;11.600;2023-02-26T11:03:04;5.50;76.90
26954;DHT22;14508;50.924;11.600;2023-02-26T11:05:33;5.70;75.60
26954;DHT22;14508;50.924;11.600;2023-02-26T11:08:03;5.70;70.00
26954;DHT22;14508;50.924;11.600;2023-02-26T11:10:42;5.80;70.40
26954;DHT22;14508;50.924;11.600;2023-02-26T11:13:11;5.80;67.20
26954;DHT22;14508;50.924;11.600;2023-02-26T11:15:39;5.80;67.50
26954;DHT22;14508;50.924;11.600;2023-02-26T11:18:12;5.90;66.70
26954;DHT22;14508;50.924;11.600;2023-02-26T11:20:44;6.00;66.60
26954;DHT22;14508;50.924;11.600;2023-02-26T11:23:16;6.10;65.10
26954;DHT22;14508;50.924;11.600;2023-02-26T11:25:45;6.20;64.00
26954;DHT22;14508;50.924;11.600;2023-02-26T11:28:20;6.20;61.60
26954;DHT22;14508;50.924;11.600;2023-02-26T11:30:48;6.30;62.70
26954;DHT22;14508;50.924;11.600;2023-02-26T11:33:27;6.30;60.60
26954;DHT22;14508;50.924;11.600;2023-02-26T11:35:59;6.40;60.90
26954;DHT22;14508;50.924;11.600;2023-02-26T11:38:28;6.50;59.60
26954;DHT22;14508;50.924;11.600;2023-02-26T11:41:00;6.40;59.50
26954;DHT22;14508;50.924;11.600;2023-02-26T11:43:35;6.40;60.20
26954;DHT22;14508;50.924;11.600;2023-02-26T11:46:04;6.30;58.20
26954;DHT22;14508;50.924;11.600;2023-02-26T11:48:39;6.40;59.30
26954;DHT22;14508;50.924;11.600;2023-02-26T11:51:11;6.50;58.20
26954;DHT22;14508;50.924;11.600;2023-02-26T11:53:43;6.40;57.60
26954;DHT22;14508;50.924;11.600;2023-02-26T11:56:19;6.50;58.70
26954;DHT22;14508;50.924;11.600;2023-02-26T11:58:52;6.40;56.90
26954;DHT22;14508;50.924;11.600;2023-02-26T12:01:26;6.40;57.00
26954;DHT22;14508;50.924;11.600;2023-02-26T12:04:00;6.40;57.40
26954;DHT22;14508;50.924;11.600;2023-02-26T12:06:29;6.50;56.40
26954;DHT22;14508;50.924;11.600;2023-02-26T12:08:57;6.50;55.80
26954;DHT22;14508;50.924;11.600;2023-02-26T12:11:57;6.50;56.10
26954;DHT22;14508;50.924;11.600;2023-02-26T12:14:43;6.50;56.90
26954;DHT22;14508;50.924;11.600;2023-02-26T12:17:26;6.60;57.60
26954;DHT22;14508;50.924;11.600;2023-02-26T12:20:06;6.70;57.40
26954;DHT22;14508;50.924;11.600;2023-02-26T12:22:48;6.60;55.10
26954;DHT22;14508;50.924;11.600;2023-02-26T12:25:37;6.40;54.50
26954;DHT22;14508;50.924;11.600;2023-02-26T12:28:23;6.40;55.70
26954;DHT22;14508;50.924;11.600;2023-02-26T12:31:09;6.40;56.00
26954;DHT22;14508;50.924;11.600;2023-02-26T12:33:52;6.40;56.10
26954;DHT22;14508;50.924;11.600;2023-02-26T12:36:35;6.40;55.00
26954;DHT22;14508;50.924;11.600;2023-02-26T12:39:31;6.30;54.70
26954;DHT22;14508;50.924;11.600;2023-02-26T12:42:11;6.10;52.70
26954;DHT22;14508;50.924;11.600;2023-02-26T12:44:55;6.00;53.80
26954;DHT22;14508;50.924;11.600;2023-02-26T12:47:34;6.00;55.00
26954;DHT22;14508;50.924;11.600;2023-02-26T12:50:18;6.20;55.50
26954;DHT22;14508;50.924;11.600;2023-02-26T12:53:09;6.40;55.60
26954;DHT22;14508;50.924;11.600;2023-02-26T12:55:48;6.40;53.50
26954;DHT22;14508;50.924;11.600;2023-02-26T12:58:42;6.20;51.90
26954;DHT22;14508;50.924;11.600;2023-02-26T13:01:37;6.00;52.80
26954;DHT22;14508;50.924;11.600;2023-02-26T13:04:56;6.00;53.90
26954;DHT22;14508;50.924;11.600;2023-02-26T13:07:47;6.00;54.40
26954;DHT22;14508;50.924;11.600;2023-02-26T13:10:23;6.10;54.60
26954;DHT22;14508;50.924;11.600;2023-02-26T13:13:06;6.00;54.10
26954;DHT22;14508;50.924;11.600;2023-02-26T13:15:50;5.70;54.10
26954;DHT22;14508;50.924;11.600;2023-02-26T13:18:25;5.60;54.80
26954;DHT22;14508;50.924;11.600;2023-02-26T13:20:57;5.50;54.40
26954;DHT22;14508;50.924;11.600;2023-02-26T13:23:30;5.40;55.40
26954;DHT22;14508;50.924;11.600;2023-02-26T13:26:03;5.30;55.10
26954;DHT22;14508;50.924;11.600;2023-02-26T13:28:39;5.20;55.30
26954;DHT22;14508;50.924;11.600;2023-02-26T13:31:11;5.00;55.10
26954;DHT22;14508;50.924;11.600;2023-02-26T13:33:40;4.90;56.40
26954;DHT22;14508;50.924;11.600;2023-02-26T13:36:09;4.80;56.30
26954;DHT22;14508;50.924;11.600;2023-02-26T13:38:49;4.70;56.80
26954;DHT22;14508;50.924;11.600;2023-02-26T13:41:26;4.70;56.30
26954;DHT22;14508;50.924;11.600;2023-02-26T13:44:11;4.70;56.80
26954;DHT22;14508;50.924;11.600;2023-02-26T13:46:55;4.60;55.80
26954;DHT22;14508;50.924;11.600;2023-02-26T13:49:28;4.50;55.70
26954;DHT22;14508;50.924;11.600;2023-02-26T13:51:57;4.50;55.10
26954;DHT22;14508;50.924;11.600;2023-02-26T13:54:33;4.60;55.90
26954;DHT22;14508;50.924;11.600;2023-02-26T13:57:14;4.60;56.00
26954;DHT22;14508;50.924;11.600;2023-02-26T13:59:51;4.60;56.20
26954;DHT22;14508;50.924;11.600;2023-02-26T14:02:44;4.60;55.00
26954;DHT22;14508;50.924;11.600;2023-02-26T14:08:26;4.80;55.30
26954;DHT22;14508;50.924;11.600;2023-02-26T14:11:22;5.00;55.10
26954;DHT22;14508;50.924;11.600;2023-02-26T14:14:08;5.20;54.50
26954;DHT22;14508;50.924;11.600;2023-02-26T14:16:39;5.20;53.30
26954;DHT22;14508;50.924;11.600;2023-02-26T14:19:20;5.20;53.30
26954;DHT22;14508;50.924;11.600;2023-02-26T14:21:50;5.00;53.10
26954;DHT22;14508;50.924;11.600;2023-02-26T14:24:22;4.90;53.60
26954;DHT22;14508;50.924;11.600;2023-02-26T14:27:08;4.80;54.20
26954;DHT22;14508;50.924;11.600;2023-02-26T14:29:59;4.70;54.60
26954;DHT22;14508;50.924;11.600;2023-02-26T14:32:30;4.90;55.40
26954;DHT22;14508;50.924;11.600;2023-02-26T14:35:04;5.00;55.80
26954;DHT22;14508;50.924;11.600;2023-02-26T14:37:33;5.10;54.90
26954;DHT22;14508;50.924;11.600;2023-02-26T14:40:09;5.20;55.50
26954;DHT22;14508;50.924;11.600;2023-02-26T14:42:45;5.20;55.30
26954;DHT22;14508;50.924;11.600;2023-02-26T14:45:27;5.20;56.00
26954;DHT22;14508;50.924;11.600;2023-02-26T14:47:56;5.10;55.70
26954;DHT22;14508;50.924;11.600;2023-02-26T14:50:29;5.10;56.40
26954;DHT22;14508;50.924;11.600;2023-02-26T14:56:06;4.90;56.60
26954;DHT22;14508;50.924;11.600;2023-02-26T14:58:58;4.80;56.50
26954;DHT22;14508;50.924;11.600;2023-02-26T15:01:44;4.50;56.40
26954;DHT22;14508;50.924;11.600;2023-02-26T15:04:50;4.20;56.30
26954;DHT22;14508;50.924;11.600;2023-02-26T15:07:36;4.00;57.60
26954;DHT22;14508;50.924;11.600;2023-02-26T15:10:14;4.00;58.40
26954;DHT22;14508;50.924;11.600;2023-02-26T15:13:08;4.00;58.20
26954;DHT22;14508;50.924;11.600;2023-02-26T15:15:46;4.30;58.70
26954;DHT22;14508;50.924;11.600;2023-02-26T15:21:22;4.50;59.10
26954;DHT22;14508;50.924;11.600;2023-02-26T15:23:54;4.30;58.80
26954;DHT22;14508;50.924;11.600;2023-02-26T15:26:26;4.20;59.10
26954;DHT22;14508;50.924;11.600;2023-02-26T15:28:55;4.10;59.20
26954;DHT22;14508;50.924;11.600;2023-02-26T15:31:29;4.00;59.70
26954;DHT22;14508;50.924;11.600;2023-02-26T15:34:00;3.90;60.40
26954;DHT22;14508;50.924;11.600;2023-02-26T15:36:29;3.60;61.10
26954;DHT22;14508;50.924;11.600;2023-02-26T15:38:59;3.50;62.50
26954;DHT22;14508;50.924;11.600;2023-02-26T15:41:30;3.30;63.50
26954;DHT22;14508;50.924;11.600;2023-02-26T15:44:02;3.20;64.60
26954;DHT22;14508;50.924;11.600;2023-02-26T15:46:32;3.10;65.10
26954;DHT22;14508;50.924;11.600;2023-02-26T15:49:06;3.00;65.10
26954;DHT22;14508;50.924;11.600;2023-02-26T15:51:35;2.90;65.60
26954;DHT22;14508;50.924;11.600;2023-02-26T15:54:03;2.90;66.70
26954;DHT22;14508;50.924;11.600;2023-02-26T15:56:34;2.80;68.30
26954;DHT22;14508;50.924;11.600;2023-02-26T15:59:06;2.90;68.70
26954;DHT22;14508;50.924;11.600;2023-02-26T16:01:34;3.00;67.50
26954;DHT22;14508;50.924;11.600;2023-02-26T16:04:10;3.20;68.00
26954;DHT22;14508;50.924;11.600;2023-02-26T16:06:40;3.30;68.10
26954;DHT22;14508;50.924;11.600;2023-02-26T16:09:17;3.40;68.10
26954;DHT22;14508;50.924;11.600;2023-02-26T16:11:46;3.50;68.90
26954;DHT22;14508;50.924;11.600;2023-02-26T16:14:19;3.50;66.80
26954;DHT22;14508;50.924;11.600;2023-02-26T16:16:50;3.50;66.70
26954;DHT22;14508;50.924;11.600;2023-02-26T16:19:25;3.40;67.80
26954;DHT22;14508;50.924;11.600;2023-02-26T16:21:56;3.20;68.20